Time;durP1;ratioP1;P1;durP2;ratioP2;P2;SDS_P1;SDS_P2;PMS_P1;PMS_P2;Temp;Humidity;BMP_temperature;BMP_pressure;BME280_temperature;BME280_humidity;BME280_pressure;Samples;Min_cycle;Max_cycle;Signal;HPM_P1;HPM_P2
2021/05/27 00:00:45;;;;;;;18.75;5.40;;;14.90;63.80;;;;;;5022326;28;20056;-66
2021/05/27 00:03:11;;;;;;;18.13;5.53;;;14.90;63.80;;;;;;5026073;28;20495;-66
2021/05/27 00:05:39;;;;;;;22.48;5.70;;;14.90;63.80;;;;;;5019688;28;20049;-69
2021/05/27 00:08:05;;;;;;;14.40;5.72;;;14.90;63.90;;;;;;5021173;28;20056;-69
2021/05/27 00:10:34;;;;;;;14.90;5.53;;;14.90;64.00;;;;;;5027852;28;20065;-66
2021/05/27 00:13:00;;;;;;;20.50;6.30;;;14.90;63.90;;;;;;5025626;28;20048;-66
2021/05/27 00:15:29;;;;;;;20.60;5.50;;;14.90;63.90;;;;;;5021908;28;20067;-67
2021/05/27 00:17:55;;;;;;;18.08;5.53;;;14.90;63.90;;;;;;5024748;28;20094;-69
2021/05/27 00:20:20;;;;;;;15.63;5.90;;;14.90;64.00;;;;;;5026541;28;20036;-67
2021/05/27 00:22:48;;;;;;;21.90;6.00;;;14.90;64.00;;;;;;5025301;28;20575;-68
2021/05/27 00:25:18;;;;;;;19.70;5.22;;;14.90;64.00;;;;;;5022037;28;20051;-67
2021/05/27 00:27:46;;;;;;;13.60;5.38;;;14.90;64.00;;;;;;5025662;28;20083;-66
2021/05/27 00:30:14;;;;;;;16.17;5.35;;;14.90;64.00;;;;;;5022951;28;20541;-68
2021/05/27 00:32:41;;;;;;;19.73;6.38;;;14.90;63.90;;;;;;5026206;28;20099;-66
2021/05/27 00:35:07;;;;;;;23.88;5.18;;;14.90;63.90;;;;;;5030983;28;20125;-69
2021/05/27 00:37:35;;;;;;;18.55;5.13;;;14.90;64.00;;;;;;5024000;28;20040;-68
2021/05/27 00:40:02;;;;;;;13.95;4.88;;;14.90;63.90;;;;;;5025541;28;20032;-69
2021/05/27 00:42:27;;;;;;;13.85;4.78;;;14.90;63.90;;;;;;5017865;28;20156;-66
2021/05/27 00:44:58;;;;;;;19.13;4.85;;;14.80;64.00;;;;;;5024141;28;20070;-66
2021/05/27 00:47:26;;;;;;;17.17;5.28;;;14.80;64.00;;;;;;5037411;28;20252;-68
2021/05/27 00:49:52;;;;;;;16.58;4.82;;;14.80;63.90;;;;;;5026643;28;20040;-68
2021/05/27 00:52:20;;;;;;;15.55;4.95;;;14.80;63.90;;;;;;5020035;28;20452;-67
2021/05/27 00:54:48;;;;;;;15.32;5.35;;;14.80;63.90;;;;;;5019775;28;20067;-67
2021/05/27 00:57:23;;;;;;;16.38;4.68;;;14.80;63.90;;;;;;5023771;28;20037;-69
2021/05/27 00:59:48;;;;;;;20.02;5.75;;;14.80;63.90;;;;;;5028484;28;23412;-66
2021/05/27 01:02:14;;;;;;;23.02;5.03;;;14.80;63.90;;;;;;5024414;28;20040;-67
2021/05/27 01:04:42;;;;;;;16.60;4.68;;;14.80;63.90;;;;;;5022128;28;20587;-66
2021/05/27 01:07:12;;;;;;;16.80;4.97;;;14.80;63.90;;;;;;5022920;28;20066;-69
2021/05/27 01:09:40;;;;;;;12.30;4.90;;;14.80;63.80;;;;;;5026340;28;20802;-68
2021/05/27 01:12:09;;;;;;;12.23;4.45;;;14.80;63.70;;;;;;5027080;28;20428;-66
2021/05/27 01:17:22;;;;;;;20.65;4.22;;;14.80;63.70;;;;;;5015854;28;20734;-69
2021/05/27 01:19:52;;;;;;;21.58;4.63;;;14.80;63.70;;;;;;5024904;28;20041;-67
2021/05/27 01:22:19;;;;;;;13.27;4.05;;;14.80;63.70;;;;;;5024178;28;20055;-67
2021/05/27 01:24:46;;;;;;;14.23;4.47;;;14.80;63.60;;;;;;5032776;28;20040;-67
2021/05/27 01:27:14;;;;;;;13.93;4.35;;;14.80;63.70;;;;;;5045856;28;24772;-68
2021/05/27 01:29:41;;;;;;;12.07;4.28;;;14.80;63.70;;;;;;5028905;28;20127;-66
2021/05/27 01:32:08;;;;;;;16.30;4.35;;;14.80;63.60;;;;;;5021621;28;22298;-68
2021/05/27 01:34:33;;;;;;;13.65;4.22;;;14.80;63.60;;;;;;5042736;28;20055;-67
2021/05/27 01:37:03;;;;;;;18.40;4.22;;;14.80;63.50;;;;;;5034541;28;20410;-67
2021/05/27 01:39:31;;;;;;;15.82;4.43;;;14.80;63.50;;;;;;5044687;28;20060;-66
2021/05/27 01:41:57;;;;;;;15.23;3.95;;;14.80;63.50;;;;;;5040845;28;20066;-69
2021/05/27 01:44:22;;;;;;;16.25;4.43;;;14.80;63.50;;;;;;5038305;28;20036;-67
2021/05/27 01:46:50;;;;;;;21.80;4.10;;;14.80;63.60;;;;;;5045681;28;20094;-66
2021/05/27 01:49:16;;;;;;;12.85;4.63;;;14.70;63.50;;;;;;5034591;28;20160;-68
2021/05/27 01:51:50;;;;;;;18.00;5.25;;;14.80;64.30;;;;;;5037623;28;20036;-66
2021/05/27 01:54:16;;;;;;;17.92;4.70;;;14.70;63.50;;;;;;5041248;28;20307;-66
2021/05/27 01:56:43;;;;;;;19.13;4.78;;;14.70;63.50;;;;;;5044006;28;20095;-66
2021/05/27 01:59:08;;;;;;;14.88;4.35;;;14.70;63.50;;;;;;5036523;28;20411;-66
2021/05/27 02:01:34;;;;;;;18.38;4.47;;;14.80;63.50;;;;;;5032985;28;20041;-66
2021/05/27 02:04:02;;;;;;;20.05;4.78;;;14.80;63.40;;;;;;5042226;28;20463;-67
2021/05/27 02:06:33;;;;;;;12.85;4.40;;;14.80;63.40;;;;;;5041387;28;20529;-68
2021/05/27 02:11:38;;;;;;;12.88;4.70;;;14.80;63.40;;;;;;5045075;28;20112;-67
2021/05/27 02:14:08;;;;;;;17.90;4.35;;;14.80;63.30;;;;;;5056925;28;20067;-66
2021/05/27 02:16:35;;;;;;;22.05;5.20;;;14.80;63.20;;;;;;5038902;28;20052;-68
2021/05/27 02:19:03;;;;;;;13.73;4.28;;;14.80;63.20;;;;;;5040971;28;20036;-68
2021/05/27 02:21:29;;;;;;;12.55;4.70;;;14.80;63.20;;;;;;5038457;28;20495;-68
2021/05/27 02:23:57;;;;;;;12.95;4.50;;;14.70;63.20;;;;;;5039755;28;20037;-66
2021/05/27 02:26:26;;;;;;;18.15;4.70;;;14.70;63.20;;;;;;5037680;28;20060;-68
2021/05/27 02:28:54;;;;;;;19.70;5.22;;;14.70;63.30;;;;;;5039281;28;20063;-66
2021/05/27 02:31:23;;;;;;;13.70;5.18;;;14.70;63.40;;;;;;5043249;28;20280;-66
2021/05/27 02:33:55;;;;;;;12.00;4.63;;;14.70;63.30;;;;;;5035678;28;20033;-69
2021/05/27 02:36:21;;;;;;;12.77;3.90;;;14.70;63.40;;;;;;5038819;28;20037;-67
2021/05/27 02:38:48;;;;;;;18.77;4.63;;;14.70;63.30;;;;;;5044783;28;20394;-68
2021/05/27 02:41:19;;;;;;;15.57;4.45;;;14.70;63.30;;;;;;5034648;28;20039;-67
2021/05/27 02:43:44;;;;;;;17.00;4.57;;;14.70;63.30;;;;;;5051202;28;20130;-67
2021/05/27 02:46:10;;;;;;;14.23;4.82;;;14.70;63.30;;;;;;5035110;28;20417;-66
2021/05/27 02:48:38;;;;;;;19.40;4.95;;;14.70;63.40;;;;;;5041802;28;20033;-66
2021/05/27 02:51:06;;;;;;;12.98;3.85;;;14.70;63.40;;;;;;5044175;28;20075;-66
2021/05/27 02:53:34;;;;;;;15.88;4.10;;;14.60;63.30;;;;;;5047955;28;20055;-67
2021/05/27 02:56:02;;;;;;;11.02;4.18;;;14.60;63.20;;;;;;5042032;28;20044;-67
2021/05/27 02:58:30;;;;;;;15.07;3.72;;;14.60;63.30;;;;;;5043681;28;20033;-69
2021/05/27 03:00:56;;;;;;;12.13;3.58;;;14.60;63.40;;;;;;5036980;28;20048;-68
2021/05/27 03:03:24;;;;;;;12.15;4.35;;;14.60;63.40;;;;;;5045009;28;20033;-68
2021/05/27 03:05:50;;;;;;;13.20;4.18;;;14.60;63.50;;;;;;5030513;28;20456;-69
2021/05/27 03:08:18;;;;;;;10.45;4.05;;;14.60;63.40;;;;;;5048154;28;20556;-66
2021/05/27 03:10:44;;;;;;;12.20;4.13;;;14.60;63.40;;;;;;5039437;28;20564;-66
2021/05/27 03:13:14;;;;;;;13.23;3.42;;;14.60;63.40;;;;;;5042088;28;20044;-69
2021/05/27 03:15:42;;;;;;;13.45;3.83;;;14.60;63.40;;;;;;5046876;28;20048;-68
2021/05/27 03:18:10;;;;;;;12.27;4.38;;;14.60;63.40;;;;;;5036163;28;20574;-66
2021/05/27 03:20:39;;;;;;;12.02;4.18;;;14.70;63.40;;;;;;5041496;28;20141;-68
2021/05/27 03:23:07;;;;;;;13.70;4.20;;;14.60;63.20;;;;;;5042424;28;20067;-68
2021/05/27 03:25:36;;;;;;;17.42;4.22;;;14.60;63.30;;;;;;5040472;28;20612;-67
2021/05/27 03:28:01;;;;;;;10.02;3.22;;;14.70;63.40;;;;;;5047236;28;20127;-65
2021/05/27 03:30:29;;;;;;;14.30;4.18;;;14.60;63.30;;;;;;5046550;28;20063;-68
2021/05/27 03:32:55;;;;;;;13.43;4.55;;;14.60;63.40;;;;;;5047543;28;20044;-67
2021/05/27 03:35:21;;;;;;;11.20;3.97;;;14.70;63.40;;;;;;5037241;28;20751;-66
2021/05/27 03:37:46;;;;;;;12.82;4.03;;;14.70;63.50;;;;;;5046610;28;20035;-68
2021/05/27 03:40:16;;;;;;;12.10;4.00;;;14.70;63.50;;;;;;5051431;27;20057;-65
2021/05/27 03:42:51;;;;;;;15.52;4.30;;;14.70;63.50;;;;;;5037262;28;20083;-65
2021/05/27 03:45:21;;;;;;;12.32;4.93;;;14.70;63.30;;;;;;5030015;28;20037;-68
2021/05/27 03:47:49;;;;;;;15.07;5.03;;;14.80;63.40;;;;;;5041775;28;20363;-66
2021/05/27 03:50:19;;;;;;;13.80;4.50;;;14.80;63.40;;;;;;5041348;28;20041;-67
2021/05/27 03:52:45;;;;;;;14.18;4.88;;;14.70;63.20;;;;;;5056029;28;20469;-65
2021/05/27 03:55:16;;;;;;;15.65;4.53;;;14.80;63.30;;;;;;5037692;28;20545;-65
2021/05/27 03:57:46;;;;;;;16.25;4.63;;;14.80;63.40;;;;;;5030333;28;20051;-69
2021/05/27 04:03:03;;;;;;;15.88;4.80;;;14.80;63.40;;;;;;5025339;28;20055;-68
2021/05/27 04:08:16;;;;;;;16.23;4.57;;;14.80;63.40;;;;;;5031547;28;20089;-68
2021/05/27 04:10:43;;;;;;;25.30;5.18;;;14.80;63.40;;;;;;5038466;28;20040;-69
2021/05/27 04:13:11;;;;;;;16.45;4.57;;;14.90;63.50;;;;;;5033777;28;20564;-68
2021/05/27 04:15:39;;;;;;;20.75;5.05;;;14.90;63.50;;;;;;5040407;28;20422;-66
2021/05/27 04:18:12;;;;;;;12.05;4.43;;;14.90;63.40;;;;;;5031312;28;20415;-67
2021/05/27 04:20:48;;;;;;;16.83;4.35;;;14.90;63.30;;;;;;5037238;28;20043;-68
2021/05/27 04:23:36;;;;;;;17.15;4.07;;;14.90;63.20;;;;;;5027535;28;23736;-66
2021/05/27 04:26:12;;;;;;;10.82;4.25;;;14.90;63.40;;;;;;5043789;28;20044;-69
2021/05/27 04:28:41;;;;;;;12.73;4.25;;;14.80;63.20;;;;;;5034237;28;20505;-68
2021/05/27 04:31:09;;;;;;;16.02;4.40;;;14.80;63.40;;;;;;5045173;27;20132;-67
2021/05/27 04:33:45;;;;;;;16.67;4.03;;;14.80;63.40;;;;;;5044376;28;20628;-67
2021/05/27 04:36:12;;;;;;;16.55;4.53;;;14.90;63.40;;;;;;5049787;27;20124;-69
2021/05/27 04:38:38;;;;;;;13.80;4.32;;;14.90;63.50;;;;;;5038773;27;20055;-66
2021/05/27 04:41:04;;;;;;;25.13;4.53;;;14.90;63.30;;;;;;5049098;27;20115;-69
2021/05/27 04:43:30;;;;;;;17.73;4.25;;;14.90;63.20;;;;;;5043349;28;20379;-66
2021/05/27 04:45:58;;;;;;;11.15;3.90;;;14.90;63.10;;;;;;5052416;27;20036;-69
2021/05/27 04:48:24;;;;;;;19.98;4.00;;;14.90;63.00;;;;;;5063778;27;20050;-66
2021/05/27 04:50:50;;;;;;;13.88;3.88;;;14.90;63.10;;;;;;5051876;28;20044;-68
2021/05/27 04:53:20;;;;;;;12.20;3.65;;;14.90;63.30;;;;;;5047904;27;20041;-68
2021/05/27 04:55:47;;;;;;;12.20;3.83;;;14.90;63.70;;;;;;5059311;28;20040;-69
2021/05/27 04:58:18;;;;;;;9.48;3.03;;;15.00;63.20;;;;;;5058848;28;20040;-66
2021/05/27 05:00:47;;;;;;;20.77;3.90;;;15.00;63.00;;;;;;5057984;28;20036;-69
2021/05/27 05:03:12;;;;;;;10.10;3.55;;;15.00;63.00;;;;;;5046358;28;20505;-69
2021/05/27 05:05:38;;;;;;;12.55;3.30;;;15.00;62.90;;;;;;5048877;28;20040;-70
2021/05/27 05:08:09;;;;;;;16.90;3.80;;;15.00;63.00;;;;;;5052346;27;20474;-70
2021/05/27 05:10:35;;;;;;;15.25;3.75;;;15.10;63.10;;;;;;5055203;28;20461;-67
2021/05/27 05:13:09;;;;;;;12.25;3.53;;;15.10;63.10;;;;;;5057805;28;20052;-66
2021/05/27 05:15:38;;;;;;;10.25;3.33;;;15.20;63.00;;;;;;5058331;27;20046;-68
2021/05/27 05:18:10;;;;;;;14.52;3.60;;;15.20;62.90;;;;;;5053970;28;20512;-68
2021/05/27 05:20:39;;;;;;;14.52;3.03;;;15.30;62.80;;;;;;5068663;28;20135;-67
2021/05/27 05:23:07;;;;;;;10.27;2.65;;;15.30;62.70;;;;;;5062286;28;20043;-68
2021/05/27 05:25:37;;;;;;;14.52;2.90;;;15.40;62.70;;;;;;5057501;28;20687;-68
2021/05/27 05:28:05;;;;;;;10.85;3.00;;;15.40;62.50;;;;;;5061068;28;20127;-69
2021/05/27 05:30:32;;;;;;;11.07;3.05;;;15.50;62.40;;;;;;5058414;27;20044;-67
2021/05/27 05:32:58;;;;;;;16.98;2.92;;;15.50;62.20;;;;;;5058336;28;20043;-66
2021/05/27 05:35:24;;;;;;;14.23;3.03;;;15.60;62.20;;;;;;5059131;27;20620;-66
2021/05/27 05:37:53;;;;;;;13.60;2.90;;;15.70;62.20;;;;;;5057960;28;20040;-66
2021/05/27 05:40:22;;;;;;;10.45;2.63;;;15.90;62.30;;;;;;5060211;28;20098;-67
2021/05/27 05:42:51;;;;;;;13.25;2.67;;;;;;;;;;5049700;28;20036;-67
2021/05/27 05:45:17;;;;;;;14.98;2.90;;;;;;;;;;5053095;28;20065;-68
2021/05/27 05:47:44;;;;;;;9.50;2.47;;;;;;;;;;5054417;28;20064;-66
2021/05/27 05:50:10;;;;;;;10.20;2.45;;;;;;;;;;5052888;28;20037;-66
2021/05/27 05:52:37;;;;;;;10.82;2.42;;;;;;;;;;5057740;28;20029;-67
2021/05/27 05:55:04;;;;;;;8.85;2.50;;;;;;;;;;5043326;28;20040;-67
2021/05/27 05:57:32;;;;;;;11.55;2.47;;;;;;;;;;5042492;28;20123;-66
2021/05/27 05:59:58;;;;;;;8.20;2.38;;;;;;;;;;5046642;28;20438;-67
2021/05/27 06:02:27;;;;;;;8.05;2.80;;;;;;;;;;5043779;28;20040;-68
2021/05/27 06:04:54;;;;;;;14.57;2.47;;;16.00;62.10;;;;;;5038835;28;20051;-67
2021/05/27 06:07:23;;;;;;;5.30;1.90;;;;;;;;;;5040287;28;20051;-67
2021/05/27 06:09:49;;;;;;;7.20;2.00;;;;;;;;;;5044096;28;20595;-68
2021/05/27 06:12:15;;;;;;;8.15;1.85;;;;;;;;;;5056735;28;20044;-68
2021/05/27 06:14:41;;;;;;;7.97;1.77;;;;;;;;;;5041652;28;20036;-68
2021/05/27 06:17:09;;;;;;;8.70;1.90;;;;;;;;;;5039674;28;20045;-67
2021/05/27 06:19:35;;;;;;;7.30;1.70;;;;;;;;;;5063262;28;20095;-68
2021/05/27 06:22:01;;;;;;;6.95;1.60;;;;;;;;;;5048287;28;20486;-67
2021/05/27 06:24:29;;;;;;;10.80;2.17;;;;;;;;;;5038943;28;20437;-69
2021/05/27 06:26:58;;;;;;;8.50;2.28;;;;;;;;;;5045182;28;20043;-67
2021/05/27 06:29:24;;;;;;;11.38;2.60;;;;;;;;;;5046917;28;20044;-68
2021/05/27 06:31:50;;;;;;;9.05;2.00;;;;;;;;;;5041717;28;20029;-66
2021/05/27 06:34:16;;;;;;;9.07;1.88;;;;;;;;;;5053274;28;20117;-67
2021/05/27 06:36:44;;;;;;;9.15;1.90;;;;;;;;;;5041124;28;20879;-67
2021/05/27 06:39:10;;;;;;;7.97;1.95;;;;;;;;;;5049986;28;20339;-67
2021/05/27 06:41:39;;;;;;;7.45;2.10;;;;;;;;;;5050350;28;20029;-67
2021/05/27 06:44:07;;;;;;;10.23;2.40;;;;;;;;;;5051981;28;20236;-66
2021/05/27 06:46:36;;;;;;;7.30;1.90;;;;;;;;;;5043935;28;20067;-67
2021/05/27 06:49:02;;;;;;;4.68;1.75;;;;;;;;;;5048288;28;20067;-67
2021/05/27 06:51:30;;;;;;;13.27;1.95;;;;;;;;;;5049159;28;20040;-66
2021/05/27 06:53:58;;;;;;;7.47;1.60;;;;;;;;;;5041095;28;20475;-65
2021/05/27 06:56:24;;;;;;;9.82;1.45;;;;;;;;;;5042589;28;20048;-66
2021/05/27 06:58:50;;;;;;;7.93;1.85;;;;;;;;;;5054114;28;20037;-66
2021/05/27 07:01:16;;;;;;;14.27;1.70;;;;;;;;;;5046333;28;20085;-65
2021/05/27 07:03:45;;;;;;;6.55;1.55;;;;;;;;;;5046997;28;20525;-69
2021/05/27 07:06:15;;;;;;;8.32;1.88;;;;;;;;;;5041524;28;20067;-67
2021/05/27 07:08:41;;;;;;;6.75;1.35;;;;;;;;;;5047007;28;20093;-68
2021/05/27 07:11:07;;;;;;;7.30;1.48;;;;;;;;;;5042770;28;20048;-67
2021/05/27 07:13:33;;;;;;;7.55;2.15;;;;;;;;;;5017283;28;20995;-68
2021/05/27 07:15:59;;;;;;;10.90;1.80;;;;;;;;;;5035049;28;20071;-66
2021/05/27 07:18:25;;;;;;;8.02;1.65;;;;;;;;;;5049064;28;20040;-68
2021/05/27 07:20:51;;;;;;;6.47;1.45;;;;;;;;;;5042708;28;20478;-67
2021/05/27 07:23:18;;;;;;;5.90;1.63;;;;;;;;;;5041831;28;20033;-66
2021/05/27 07:25:44;;;;;;;6.80;1.58;;;;;;;;;;5032428;28;20748;-66
2021/05/27 07:28:13;;;;;;;6.88;1.70;;;;;;;;;;5050699;28;20049;-66
2021/05/27 07:30:39;;;;;;;5.15;1.30;;;;;;;;;;5041489;28;20304;-66
2021/05/27 07:33:05;;;;;;;5.78;1.83;;;;;;;;;;5034823;28;20321;-68
2021/05/27 07:35:33;;;;;;;5.88;1.60;;;;;;;;;;5039704;28;20048;-67
2021/05/27 07:38:00;;;;;;;8.05;1.73;;;;;;;;;;5033672;28;20051;-67
2021/05/27 07:40:28;;;;;;;8.75;2.10;;;17.40;60.80;;;;;;5024730;28;20418;-68
2021/05/27 07:42:57;;;;;;;6.95;2.10;;;18.90;52.10;;;;;;5041131;28;20037;-66
2021/05/27 07:45:27;;;;;;;3.63;1.30;;;18.80;52.20;;;;;;5030188;28;20037;-68
2021/05/27 07:47:55;;;;;;;5.43;1.88;;;18.70;52.10;;;;;;5033188;28;20267;-67
2021/05/27 07:50:21;;;;;;;7.40;1.48;;;18.60;52.40;;;;;;5040919;28;20051;-67
2021/05/27 07:52:47;;;;;;;10.48;1.85;;;18.60;53.20;;;;;;5036888;28;20029;-69
2021/05/27 07:55:14;;;;;;;8.32;1.60;;;;;;;;;;5034676;28;20889;-68
2021/05/27 07:57:39;;;;;;;10.48;1.88;;;18.70;52.80;;;;;;5039727;28;20036;-67
2021/05/27 08:00:06;;;;;;;5.45;1.40;;;18.70;51.50;;;;;;5037575;28;20599;-68
2021/05/27 08:02:38;;;;;;;6.68;1.73;;;18.60;52.80;;;;;;5041479;28;20037;-67
2021/05/27 08:05:05;;;;;;;13.38;1.60;;;;;;;;;;5050722;28;23583;-67
2021/05/27 08:07:31;;;;;;;3.00;1.52;;;;;;;;;;5039245;28;20124;-67
2021/05/27 08:09:59;;;;;;;5.50;1.65;;;;;;;;;;5038049;28;20055;-68
2021/05/27 08:12:25;;;;;;;9.38;2.30;;;;;;;;;;5044409;28;20029;-66
2021/05/27 08:14:51;;;;;;;9.23;2.00;;;;;;;;;;5033117;28;20041;-67
2021/05/27 08:17:17;;;;;;;8.85;1.90;;;;;;;;;;5036971;28;20051;-68
2021/05/27 08:19:43;;;;;;;9.07;2.15;;;;;;;;;;5032879;28;20032;-67
2021/05/27 08:22:10;;;;;;;6.88;2.30;;;;;;;;;;5036332;28;20043;-68
2021/05/27 08:24:36;;;;;;;9.45;1.75;;;;;;;;;;5037381;28;20245;-67
2021/05/27 08:27:02;;;;;;;7.55;1.80;;;;;;;;;;5037180;28;20308;-68
2021/05/27 08:29:27;;;;;;;6.05;1.50;;;18.50;52.70;;;;;;5037708;28;20044;-67
2021/05/27 08:31:53;;;;;;;11.63;1.70;;;19.10;52.10;;;;;;5040468;28;20477;-67
2021/05/27 08:34:19;;;;;;;12.65;1.80;;;19.30;51.70;;;;;;5041334;28;20573;-65
2021/05/27 08:36:45;;;;;;;5.85;1.70;;;19.40;50.90;;;;;;5039452;28;20418;-69
2021/05/27 08:39:15;;;;;;;11.90;2.28;;;;;;;;;;5035323;28;24060;-69
2021/05/27 08:41:41;;;;;;;7.75;1.90;;;19.50;50.90;;;;;;5036457;28;20349;-67
2021/05/27 08:44:08;;;;;;;8.90;2.10;;;19.50;50.80;;;;;;5043188;28;20056;-67
2021/05/27 08:46:33;;;;;;;6.65;1.77;;;19.40;50.00;;;;;;5046006;28;20465;-67
2021/05/27 08:49:00;;;;;;;9.07;1.90;;;19.20;50.20;;;;;;5038085;28;20048;-68
2021/05/27 08:51:28;;;;;;;6.65;1.60;;;19.10;50.30;;;;;;5044353;28;20041;-67
2021/05/27 08:53:55;;;;;;;12.93;1.90;;;19.00;51.00;;;;;;5030717;28;20037;-67
2021/05/27 08:56:23;;;;;;;4.63;1.38;;;19.00;51.50;;;;;;5057144;28;20040;-67
2021/05/27 08:58:51;;;;;;;10.50;2.13;;;19.10;51.60;;;;;;5041275;28;20266;-67
2021/05/27 09:01:21;;;;;;;6.10;1.70;;;19.10;51.20;;;;;;5035543;28;20537;-67
2021/05/27 09:03:49;;;;;;;8.57;1.95;;;19.00;50.70;;;;;;5038491;28;20151;-67
2021/05/27 09:06:17;;;;;;;9.70;1.88;;;18.90;50.80;;;;;;5030433;28;20187;-67
2021/05/27 09:08:45;;;;;;;8.13;1.60;;;18.90;50.80;;;;;;5032544;28;20051;-67
2021/05/27 09:11:20;;;;;;;7.28;1.70;;;18.80;51.30;;;;;;5038691;28;20326;-67
2021/05/27 09:13:57;;;;;;;8.23;1.65;;;18.80;50.90;;;;;;5037408;28;20052;-66
2021/05/27 09:16:25;;;;;;;6.25;1.60;;;18.60;50.70;;;;;;5041853;28;20502;-68
2021/05/27 09:18:50;;;;;;;9.05;1.52;;;18.50;51.20;;;;;;5036451;28;21606;-67
2021/05/27 09:21:31;;;;;;;6.07;1.55;;;18.40;51.60;;;;;;5042895;28;20033;-66
2021/05/27 09:23:56;;;;;;;5.07;1.50;;;18.20;51.70;;;;;;5053818;28;20044;-68
2021/05/27 09:26:27;;;;;;;13.27;1.95;;;18.10;52.20;;;;;;5044865;28;20040;-67
2021/05/27 09:29:12;;;;;;;8.57;1.77;;;18.00;52.80;;;;;;5038222;28;20048;-67
2021/05/27 09:32:03;;;;;;;4.72;1.30;;;18.10;53.50;;;;;;5044656;28;20037;-68
2021/05/27 09:34:53;;;;;;;4.97;1.50;;;18.30;53.20;;;;;;5036123;28;20048;-68
2021/05/27 09:37:28;;;;;;;7.88;1.40;;;18.70;52.80;;;;;;5045206;28;20049;-67
2021/05/27 09:39:54;;;;;;;6.32;1.13;;;18.90;52.40;;;;;;5041601;28;20032;-66
2021/05/27 09:42:20;;;;;;;8.70;1.60;;;19.20;51.80;;;;;;5054008;28;20098;-67
2021/05/27 09:44:46;;;;;;;4.28;1.20;;;19.20;51.50;;;;;;5052008;28;20528;-67
2021/05/27 09:47:16;;;;;;;5.20;1.40;;;19.20;51.00;;;;;;5050716;28;20166;-67
2021/05/27 09:50:06;;;;;;;5.68;1.20;;;19.20;50.70;;;;;;5060480;28;20570;-67
2021/05/27 09:52:48;;;;;;;7.00;1.10;;;19.10;50.80;;;;;;5054785;28;20116;-67
2021/05/27 09:55:16;;;;;;;9.38;1.60;;;19.20;51.00;;;;;;5050656;28;20231;-66
2021/05/27 09:57:44;;;;;;;8.85;1.27;;;19.20;50.60;;;;;;5042571;28;20133;-69
2021/05/27 10:00:22;;;;;;;6.43;1.38;;;19.30;50.80;;;;;;5051073;28;23442;-67
2021/05/27 10:02:51;;;;;;;7.55;1.30;;;19.40;50.70;;;;;;5049337;28;20506;-66
2021/05/27 10:05:20;;;;;;;4.38;1.40;;;19.60;50.70;;;;;;5049219;28;20043;-67
2021/05/27 10:07:48;;;;;;;6.47;1.30;;;;;;;;;;5042773;28;20465;-68
2021/05/27 10:10:19;;;;;;;7.85;1.20;;;;;;;;;;5044039;28;20462;-67
2021/05/27 10:12:46;;;;;;;4.18;1.05;;;;;;;;;;5047671;28;20031;-67
2021/05/27 10:15:13;;;;;;;1.88;1.13;;;;;;;;;;5048434;28;20029;-67
2021/05/27 10:17:58;;;;;;;6.53;1.15;;;;;;;;;;5041824;28;20040;-67
2021/05/27 10:20:25;;;;;;;6.95;1.17;;;;;;;;;;5049560;28;20044;-67
2021/05/27 10:22:54;;;;;;;6.03;1.00;;;;;;;;;;5047995;28;20037;-67
2021/05/27 10:25:21;;;;;;;3.58;1.13;;;20.00;51.10;;;;;;5053387;28;20051;-67
2021/05/27 10:27:50;;;;;;;4.78;1.10;;;24.00;43.40;;;;;;5031838;28;20048;-68
2021/05/27 10:30:19;;;;;;;7.07;1.27;;;23.90;42.90;;;;;;5048179;28;20884;-67
2021/05/27 10:32:50;;;;;;;5.55;1.10;;;23.70;42.30;;;;;;5050721;28;20039;-67
2021/05/27 10:35:19;;;;;;;8.57;1.30;;;23.50;42.20;;;;;;5051268;28;20859;-66
2021/05/27 10:37:52;;;;;;;6.40;1.23;;;23.10;42.60;;;;;;5042670;28;20801;-68
2021/05/27 10:40:20;;;;;;;5.70;1.00;;;22.80;42.90;;;;;;5044535;28;20571;-68
2021/05/27 10:43:07;;;;;;;3.60;0.68;;;22.70;43.80;;;;;;5046660;28;20024;-67
2021/05/27 10:45:35;;;;;;;2.65;0.93;;;22.80;43.80;;;;;;5047973;28;20020;-67
2021/05/27 10:48:16;;;;;;;6.38;1.13;;;23.00;43.40;;;;;;5037840;28;20094;-68
2021/05/27 10:50:50;;;;;;;11.05;1.27;;;23.20;42.40;;;;;;5048761;28;20529;-68
2021/05/27 10:53:38;;;;;;;4.15;1.10;;;;;;;;;;5049221;28;20056;-67
2021/05/27 10:56:07;;;;;;;5.45;1.30;;;;;;;;;;5046371;28;20040;-67
2021/05/27 11:01:32;;;;;;;3.55;1.38;;;24.20;41.70;;;;;;5048987;28;20037;-68
2021/05/27 11:04:01;;;;;;;4.95;1.50;;;24.50;39.70;;;;;;5041656;28;20401;-67
2021/05/27 11:06:35;;;;;;;4.43;1.10;;;24.40;39.40;;;;;;5043818;28;20048;-68
2021/05/27 11:09:13;;;;;;;13.98;1.77;;;23.90;39.30;;;;;;5035706;28;20036;-68
2021/05/27 11:11:45;;;;;;;5.97;1.30;;;23.30;40.50;;;;;;5044851;28;20048;-67
2021/05/27 11:14:41;;;;;;;7.78;1.60;;;22.90;41.20;;;;;;5043487;28;20428;-66
2021/05/27 11:17:09;;;;;;;7.93;1.60;;;22.50;41.80;;;;;;5044588;28;20037;-67
2021/05/27 11:19:56;;;;;;;6.38;1.13;;;22.20;42.70;;;;;;5048297;28;20040;-67
2021/05/27 11:25:12;;;;;;;9.93;1.42;;;21.90;43.70;;;;;;5043802;28;20056;-67
2021/05/27 11:27:45;;;;;;;9.63;1.55;;;22.30;44.20;;;;;;5046181;28;20045;-67
2021/05/27 11:30:25;;;;;;;4.78;1.40;;;22.80;44.00;;;;;;5052676;28;20067;-67
2021/05/27 11:32:59;;;;;;;4.13;1.15;;;23.40;43.10;;;;;;5048160;28;20052;-67
2021/05/27 11:35:27;;;;;;;4.53;1.02;;;23.90;41.80;;;;;;5047015;28;20716;-66
2021/05/27 11:37:54;;;;;;;10.15;1.48;;;24.00;41.90;;;;;;5046389;28;20477;-66
2021/05/27 11:40:25;;;;;;;6.47;1.50;;;24.10;42.10;;;;;;5043548;28;20040;-68
2021/05/27 11:42:54;;;;;;;2.10;0.80;;;24.30;41.30;;;;;;5048145;28;20671;-67
2021/05/27 11:45:24;;;;;;;2.10;0.85;;;24.20;39.90;;;;;;5041731;28;20505;-67
2021/05/27 11:48:31;;;;;;;5.25;0.98;;;24.00;39.90;;;;;;5040668;28;20140;-66
2021/05/27 11:51:03;;;;;;;13.00;1.15;;;23.70;40.60;;;;;;5046818;28;20040;-68
2021/05/27 11:53:51;;;;;;;3.80;0.80;;;23.50;40.60;;;;;;5040870;28;20343;-67
2021/05/27 11:56:38;;;;;;;3.00;0.77;;;23.10;40.90;;;;;;5062641;28;20123;-67
2021/05/27 11:59:10;;;;;;;2.85;0.90;;;22.60;41.30;;;;;;5046637;28;20032;-67
2021/05/27 12:01:39;;;;;;;5.70;1.10;;;22.20;41.80;;;;;;5046041;28;20638;-67
2021/05/27 12:04:14;;;;;;;6.40;1.77;;;21.80;43.00;;;;;;5047305;28;20064;-67
2021/05/27 12:06:59;;;;;;;6.20;1.38;;;21.60;43.80;;;;;;5050089;28;20359;-67
2021/05/27 12:09:28;;;;;;;3.00;1.13;;;21.30;43.90;;;;;;5036076;28;20651;-67
2021/05/27 12:11:57;;;;;;;2.90;1.27;;;21.00;44.30;;;;;;5046983;28;20075;-68
2021/05/27 12:14:22;;;;;;;2.85;1.02;;;20.80;44.70;;;;;;5043725;28;20673;-66
2021/05/27 12:16:53;;;;;;;4.85;1.00;;;20.70;46.00;;;;;;5044568;28;20440;-68
2021/05/27 12:19:19;;;;;;;7.35;1.33;;;20.50;46.10;;;;;;5038027;28;21043;-67
2021/05/27 12:21:56;;;;;;;5.00;1.40;;;20.60;46.60;;;;;;5035857;28;20109;-66
2021/05/27 12:24:27;;;;;;;2.10;1.50;;;20.70;46.80;;;;;;5044539;28;20032;-68
2021/05/27 12:26:58;;;;;;;8.13;1.60;;;20.90;46.40;;;;;;5044254;28;20036;-68
2021/05/27 12:29:25;;;;;;;12.63;1.50;;;21.20;46.20;;;;;;5038191;28;20177;-67
2021/05/27 12:31:53;;;;;;;4.72;1.02;;;21.50;46.00;;;;;;5040624;28;20755;-66
2021/05/27 12:34:20;;;;;;;2.72;0.95;;;21.90;45.30;;;;;;5035794;28;20591;-68
2021/05/27 12:36:52;;;;;;;2.75;1.17;;;;;;;;;;5045667;28;20426;-67
2021/05/27 12:39:35;;;;;;;4.75;1.00;;;22.20;44.70;;;;;;5037169;28;20449;-67
2021/05/27 12:42:08;;;;;;;1.60;0.82;;;23.10;43.80;;;;;;5050321;28;23401;-67
2021/05/27 12:44:41;;;;;;;3.85;0.98;;;23.30;43.30;;;;;;5049694;28;20688;-67
2021/05/27 12:47:17;;;;;;;8.73;1.05;;;23.50;42.10;;;;;;5048097;28;20025;-66
2021/05/27 12:49:44;;;;;;;9.25;1.13;;;23.30;42.20;;;;;;5040840;28;20039;-66
2021/05/27 12:52:10;;;;;;;1.27;0.80;;;23.40;42.60;;;;;;5051336;28;20028;-68
2021/05/27 12:54:36;;;;;;;2.38;0.63;;;23.50;43.20;;;;;;5047192;28;20167;-67
2021/05/27 12:57:06;;;;;;;2.75;0.82;;;23.80;41.90;;;;;;5052211;28;20045;-66
2021/05/27 12:59:36;;;;;;;3.17;0.93;;;24.10;41.30;;;;;;5043594;28;20117;-67
2021/05/27 13:02:06;;;;;;;4.85;1.05;;;24.00;40.20;;;;;;5045791;28;20120;-68
2021/05/27 13:04:36;;;;;;;5.32;0.80;;;23.70;39.80;;;;;;5047240;28;20036;-68
2021/05/27 13:07:12;;;;;;;3.25;0.98;;;23.40;40.30;;;;;;5041484;28;20052;-68
2021/05/27 13:09:54;;;;;;;1.63;0.60;;;22.90;41.30;;;;;;5040236;28;20044;-67
2021/05/27 13:12:22;;;;;;;2.08;0.70;;;22.60;41.90;;;;;;5060823;28;20039;-66
2021/05/27 13:15:08;;;;;;;3.28;1.00;;;22.30;42.40;;;;;;5048180;28;20059;-68
2021/05/27 13:17:33;;;;;;;6.47;1.00;;;22.00;42.80;;;;;;5059346;28;20790;-66
2021/05/27 13:20:00;;;;;;;4.05;0.90;;;22.00;43.80;;;;;;5042268;28;20040;-67
2021/05/27 13:22:32;;;;;;;4.65;1.20;;;22.10;44.00;;;;;;5041967;28;20037;-67
2021/05/27 13:25:13;;;;;;;4.43;0.98;;;22.20;43.50;;;;;;5051524;28;20078;-68
2021/05/27 13:27:55;;;;;;;2.28;0.80;;;22.20;43.00;;;;;;5048389;28;20041;-67
2021/05/27 13:30:34;;;;;;;2.25;0.70;;;22.00;42.90;;;;;;5055938;28;20040;-67
2021/05/27 13:33:05;;;;;;;3.15;0.70;;;21.80;42.70;;;;;;5055423;28;20032;-66